Time;durP1;ratioP1;P1;durP2;ratioP2;P2;SDS_P1;SDS_P2;PMS_P1;PMS_P2;Temp;Humidity;BMP_temperature;BMP_pressure;BME280_temperature;BME280_humidity;BME280_pressure;Samples;Min_cycle;Max_cycle;Signal;HPM_P1;HPM_P2
2022/04/05 00:02:24;;;;;;;13.67;12.03;;;;;;;;;;5046617;28;20030;-64
2022/04/05 00:04:50;;;;;;;19.37;17.20;;;;;;;;;;5052824;28;20043;-64
2022/04/05 00:07:15;;;;;;;20.60;18.60;;;;;;;;;;5046745;28;20018;-64
2022/04/05 00:09:41;;;;;;;11.40;9.50;;;;;;;;;;5052541;28;20036;-64
2022/04/05 00:12:06;;;;;;;14.07;12.07;;;;;;;;;;5053219;28;20031;-65
2022/04/05 00:14:31;;;;;;;27.27;21.77;;;;;;;;;;5045581;28;20083;-64
2022/04/05 00:16:57;;;;;;;21.30;19.00;;;;;;;;;;5049511;28;20108;-64
2022/04/05 00:19:23;;;;;;;11.50;9.63;;;;;;;;;;5053765;28;20100;-64
2022/04/05 00:21:48;;;;;;;17.93;15.27;;;;;;;;;;5045926;28;20381;-65
2022/04/05 00:24:14;;;;;;;12.90;11.27;;;;;;;;;;5041666;28;20014;-64
2022/04/05 00:26:39;;;;;;;20.27;15.53;;;;;;;;;;5043714;28;20021;-65
2022/04/05 00:29:04;;;;;;;14.50;12.07;;;;;;;;;;5042130;28;20017;-64
2022/04/05 00:31:29;;;;;;;22.47;19.13;;;;;;;;;;5047352;28;20433;-64
2022/04/05 00:33:55;;;;;;;19.83;17.43;;;;;;;;;;5041146;28;20124;-65
2022/04/05 00:36:20;;;;;;;22.03;15.37;;;;;;;;;;5050459;28;20033;-64
2022/04/05 00:38:45;;;;;;;27.33;22.20;;;;;;;;;;5052957;28;20098;-65
2022/04/05 00:41:10;;;;;;;22.17;18.30;;;;;;;;;;5052495;28;20111;-64
2022/04/05 00:43:36;;;;;;;12.13;10.80;;;;;;;;;;5051623;28;20032;-65
2022/04/05 00:46:01;;;;;;;16.00;12.30;;;;;;;;;;5033503;28;20074;-65
2022/04/05 00:48:33;;;;;;;14.23;11.37;;;;;;;;;;5054774;28;20021;-65
2022/04/05 00:50:58;;;;;;;22.57;18.77;;;;;;;;;;5052164;28;20493;-64
2022/04/05 00:53:26;;;;;;;21.57;17.10;;;;;;;;;;5051759;28;20013;-65
2022/04/05 00:55:53;;;;;;;26.33;19.50;;;;;;;;;;5052338;28;20028;-64
2022/04/05 00:58:18;;;;;;;22.23;16.67;;;;;;;;;;5042504;28;20040;-64
2022/04/05 01:00:44;;;;;;;26.30;19.83;;;;;;;;;;5051117;28;20028;-64
2022/04/05 01:03:09;;;;;;;17.00;13.03;;;;;;;;;;5046316;28;20024;-64
2022/04/05 01:05:35;;;;;;;23.00;17.73;;;;;;;;;;5047701;28;20037;-64
2022/04/05 01:08:02;;;;;;;30.50;22.17;;;;;;;;;;5044170;28;20097;-64
2022/04/05 01:10:28;;;;;;;24.10;18.90;;;;;;;;;;5051696;28;20017;-64
2022/04/05 01:12:53;;;;;;;24.43;18.63;;;;;;;;;;5051801;28;20029;-64
2022/04/05 01:15:18;;;;;;;24.33;19.73;;;;;;;;;;5047894;28;20039;-64
2022/04/05 01:17:43;;;;;;;26.87;19.47;;;;;;;;;;5049511;28;20084;-64
2022/04/05 01:20:09;;;;;;;19.60;15.07;;;;;;;;;;5046092;28;20540;-65
2022/04/05 01:22:34;;;;;;;17.63;14.63;;;;;;;;;;5041932;28;20080;-64
2022/04/05 01:24:59;;;;;;;29.80;19.77;;;;;;;;;;5053130;28;20483;-64
2022/04/05 01:27:27;;;;;;;27.40;21.07;;;;;;;;;;5038335;28;20097;-63
2022/04/05 01:29:53;;;;;;;17.70;14.20;;;;;;;;;;5045406;28;20049;-64
2022/04/05 01:32:18;;;;;;;26.60;19.47;;;;;;;;;;5049222;28;20059;-64
2022/04/05 01:34:43;;;;;;;25.87;19.77;;;;;;;;;;5049005;28;20029;-64
2022/04/05 01:37:12;;;;;;;14.67;10.90;;;;;;;;;;5043370;28;20062;-65
2022/04/05 01:39:38;;;;;;;12.50;11.00;;;;;;;;;;5052079;28;20028;-65
2022/04/05 01:42:03;;;;;;;22.33;17.60;;;;;;;;;;5049418;28;20029;-64
2022/04/05 01:44:30;;;;;;;24.47;18.00;;;;;;;;;;5041393;28;20048;-64
2022/04/05 01:46:56;;;;;;;31.40;20.40;;;;;;;;;;5038550;28;20420;-64
2022/04/05 01:49:21;;;;;;;20.73;16.77;;;;;;;;;;5050940;28;20088;-65
2022/04/05 01:51:47;;;;;;;10.43;9.00;;;;;;;;;;5044840;28;20041;-64
2022/04/05 01:54:14;;;;;;;12.03;9.83;;;;;;;;;;5051730;28;20017;-64
2022/04/05 01:56:40;;;;;;;16.00;13.23;;;;;;;;;;5049586;28;20029;-64
2022/04/05 01:59:06;;;;;;;28.60;17.77;;;;;;;;;;5044596;28;20091;-64
2022/04/05 02:01:31;;;;;;;17.53;14.10;;;;;;;;;;5046000;28;20021;-64
2022/04/05 02:03:56;;;;;;;22.57;15.40;;;;;;;;;;5044525;28;20045;-64
2022/04/05 02:06:22;;;;;;;25.60;14.70;;;;;;;;;;5049791;28;20059;-64
2022/04/05 02:08:47;;;;;;;28.27;18.43;;;;;;;;;;5052011;28;20187;-63
2022/04/05 02:11:13;;;;;;;32.43;20.60;;;;;;;;;;5050701;28;20469;-64
2022/04/05 02:13:38;;;;;;;21.83;15.00;;;;;;;;;;5052254;28;20543;-64
2022/04/05 02:16:03;;;;;;;22.10;16.13;;;;;;;;;;5043256;28;20071;-64
2022/04/05 02:18:28;;;;;;;19.73;16.33;;;;;;;;;;5063008;28;20025;-63
2022/04/05 02:20:55;;;;;;;21.10;15.73;;;;;;;;;;5044829;28;20172;-65
2022/04/05 02:23:20;;;;;;;20.00;14.20;;;;;;;;;;5045906;28;20444;-65
2022/04/05 02:25:45;;;;;;;26.60;18.37;;;;;;;;;;5050010;28;20024;-64
2022/04/05 02:28:10;;;;;;;31.47;19.43;;;;;;;;;;5043643;28;20382;-65
2022/04/05 02:30:37;;;;;;;26.17;17.13;;;;;;;;;;5050993;28;20025;-64
2022/04/05 02:33:02;;;;;;;21.77;15.83;;;;;;;;;;5042611;28;20016;-64
2022/04/05 02:35:27;;;;;;;14.60;12.17;;;;;;;;;;5053895;28;20601;-65
2022/04/05 02:37:52;;;;;;;19.80;13.57;;;;;;;;;;5039800;28;20071;-65
2022/04/05 02:40:17;;;;;;;14.83;12.13;;;;;;;;;;5051611;28;20120;-65
2022/04/05 02:42:43;;;;;;;23.17;15.23;;;;;;;;;;5040897;28;20079;-65
2022/04/05 02:45:08;;;;;;;12.97;9.83;;;;;;;;;;5045139;28;20020;-64
2022/04/05 02:47:33;;;;;;;15.73;12.37;;;;;;;;;;5061890;28;20317;-65
2022/04/05 02:49:59;;;;;;;21.37;16.20;;;;;;;;;;5051226;28;20027;-65
2022/04/05 02:52:24;;;;;;;21.87;16.10;;;;;;;;;;5050181;28;20029;-65
2022/04/05 02:54:49;;;;;;;18.10;12.53;;;;;;;;;;5055500;28;20037;-63
2022/04/05 02:57:18;;;;;;;31.00;19.40;;;;;;;;;;5025316;28;20555;-64
2022/04/05 02:59:43;;;;;;;26.50;16.33;;;;;;;;;;5031317;28;20089;-65
2022/04/05 03:02:09;;;;;;;17.37;13.93;;;;;;;;;;5049699;28;20053;-64
2022/04/05 03:04:36;;;;;;;13.23;9.70;;;;;;;;;;5057331;28;20416;-65
2022/04/05 03:07:02;;;;;;;9.33;7.63;;;;;;;;;;5048460;28;20422;-65
2022/04/05 03:09:27;;;;;;;12.23;9.47;;;;;;;;;;5050347;28;20059;-65
2022/04/05 03:11:52;;;;;;;17.20;14.07;;;;;;;;;;5051289;28;20028;-64
2022/04/05 03:14:17;;;;;;;21.77;14.10;;;;;;;;;;5045087;28;20398;-64
2022/04/05 03:16:42;;;;;;;20.40;14.37;;;;;;;;;;5051301;28;20112;-64
2022/04/05 03:19:08;;;;;;;14.43;11.83;;;;;;;;;;5049800;28;20052;-64
2022/04/05 03:21:33;;;;;;;11.70;9.10;;;;;;;;;;5050291;28;20017;-65
2022/04/05 03:23:58;;;;;;;11.37;9.50;;;;;;;;;;5061606;28;20020;-64
2022/04/05 03:26:23;;;;;;;12.37;10.67;;;;;;;;;;5034228;28;20040;-65
2022/04/05 03:28:49;;;;;;;15.43;12.07;;;;;;;;;;5043427;28;20039;-64
2022/04/05 03:31:14;;;;;;;7.60;6.17;;;;;;;;;;5045848;28;20110;-65
2022/04/05 03:33:40;;;;;;;17.03;13.90;;;;;;;;;;5058019;28;20047;-65
2022/04/05 03:36:05;;;;;;;14.90;10.90;;;;;;;;;;5064595;28;20029;-65
2022/04/05 03:38:30;;;;;;;19.37;14.93;;;;;;;;;;5048888;28;20029;-65
2022/04/05 03:40:55;;;;;;;13.63;11.47;;;;;;;;;;5068613;28;20382;-65
2022/04/05 03:43:21;;;;;;;19.27;12.93;;;;;;;;;;5050241;28;20029;-63
2022/04/05 03:45:47;;;;;;;7.93;7.13;;;;;;;;;;5052948;28;20108;-65
2022/04/05 03:48:12;;;;;;;17.27;12.43;;;;;;;;;;5039281;28;20021;-65
2022/04/05 03:50:38;;;;;;;17.80;13.90;;;;;;;;;;5052909;28;20028;-64
2022/04/05 03:53:03;;;;;;;17.27;12.60;;;;;;;;;;5059149;28;20063;-66
2022/04/05 03:55:28;;;;;;;24.00;12.83;;;;;;;;;;5058446;28;20024;-64
2022/04/05 03:57:54;;;;;;;5.67;5.03;;;;;;;;;;5041117;28;20055;-64
2022/04/05 04:00:19;;;;;;;16.13;11.53;;;;;;;;;;5052309;28;20025;-64
2022/04/05 04:02:44;;;;;;;14.53;10.37;;;;;;;;;;5056071;28;20456;-65
2022/04/05 04:05:09;;;;;;;17.40;12.20;;;;;;;;;;5048361;28;20378;-65
2022/04/05 04:07:40;;;;;;;15.83;12.53;;;;;;;;;;5052367;28;20048;-64
2022/04/05 04:10:06;;;;;;;13.47;10.07;;;;;;;;;;5053028;28;20501;-64
2022/04/05 04:12:32;;;;;;;12.57;11.23;;;;;;;;;;5053267;28;20068;-65
2022/04/05 04:14:57;;;;;;;15.80;11.67;;;;;;;;;;5040953;28;20061;-65
2022/04/05 04:17:23;;;;;;;8.07;6.73;;;;;;;;;;5053682;28;20028;-65
2022/04/05 04:19:48;;;;;;;17.00;12.80;;;;;;;;;;5041624;28;20061;-65
2022/04/05 04:22:13;;;;;;;17.77;12.90;;;;;;;;;;5050915;28;20394;-65
2022/04/05 04:24:38;;;;;;;21.77;14.17;;;;;;;;;;5064759;28;20028;-64
2022/04/05 04:27:03;;;;;;;16.63;12.23;;;;;;;;;;5052230;28;20541;-65
2022/04/05 04:29:29;;;;;;;16.47;12.00;;;;;;;;;;5029014;28;20430;-64
2022/04/05 04:31:54;;;;;;;10.53;7.47;;;;;;;;;;5045343;28;20033;-65
2022/04/05 04:34:19;;;;;;;17.30;11.67;;;;;;;;;;5053890;28;20054;-65
2022/04/05 04:36:45;;;;;;;7.33;6.17;;;;;;;;;;5051511;28;20028;-64
2022/04/05 04:39:10;;;;;;;12.20;9.13;;;;;;;;;;5058631;28;20025;-65
2022/04/05 04:41:35;;;;;;;10.80;9.07;;;;;;;;;;5052679;28;20032;-65
2022/04/05 04:44:00;;;;;;;13.67;8.97;;;;;;;;;;5048601;28;20040;-64
2022/04/05 04:46:26;;;;;;;14.90;9.37;;;;;;;;;;5057547;28;20075;-63
2022/04/05 04:48:51;;;;;;;9.70;7.73;;;;;;;;;;5038582;28;20490;-65
2022/04/05 04:51:16;;;;;;;9.20;7.87;;;;;;;;;;5043106;28;20017;-65
2022/04/05 04:53:41;;;;;;;11.40;9.10;;;;;;;;;;5050746;28;20094;-65
2022/04/05 04:56:08;;;;;;;9.57;8.17;;;;;;;;;;5047529;28;20021;-66
2022/04/05 04:58:33;;;;;;;12.43;9.00;;;;;;;;;;5044332;28;20053;-65
2022/04/05 05:00:58;;;;;;;11.07;8.87;;;;;;;;;;5033327;28;20025;-65
2022/04/05 05:03:23;;;;;;;8.30;7.43;;;;;;;;;;5051492;28;20056;-65
2022/04/05 05:05:49;;;;;;;8.63;7.77;;;;;;;;;;5045436;28;20115;-66
2022/04/05 05:08:14;;;;;;;8.87;7.97;;;;;;;;;;5069327;28;20381;-66
2022/04/05 05:10:39;;;;;;;6.23;5.57;;;;;;;;;;5055589;28;20088;-65
2022/04/05 05:13:04;;;;;;;9.70;7.27;;;;;;;;;;5045866;28;20068;-66
2022/04/05 05:15:30;;;;;;;7.80;7.00;;;;;;;;;;5052524;28;20052;-65
2022/04/05 05:17:55;;;;;;;14.17;10.20;;;;;;;;;;5052699;28;20440;-65
2022/04/05 05:20:21;;;;;;;8.43;7.60;;;;;;;;;;5048842;28;20036;-65
2022/04/05 05:22:46;;;;;;;6.77;6.07;;;;;;;;;;5032273;28;20026;-66
2022/04/05 05:25:12;;;;;;;6.10;5.53;;;;;;;;;;5043401;28;20017;-67
2022/04/05 05:27:38;;;;;;;7.10;6.40;;;;;;;;;;5038495;28;20116;-64
2022/04/05 05:30:05;;;;;;;12.07;9.70;;;;;;;;;;5040641;28;20082;-64
2022/04/05 05:32:30;;;;;;;8.43;7.00;;;;;;;;;;5047690;28;20036;-64
2022/04/05 05:34:56;;;;;;;5.37;4.70;;;;;;;;;;5048854;28;20029;-67
2022/04/05 05:37:21;;;;;;;8.43;7.37;;;;;;;;;;5035629;28;20458;-65
2022/04/05 05:39:46;;;;;;;9.13;7.70;;;;;;;;;;5048794;28;20024;-65
2022/04/05 05:42:12;;;;;;;7.63;6.53;;;;;;;;;;5046031;28;20358;-65
2022/04/05 05:44:37;;;;;;;4.27;3.87;;;;;;;;;;5057448;28;20474;-66
2022/04/05 05:47:03;;;;;;;8.23;6.67;;;;;;;;;;5044300;28;20037;-66
2022/04/05 05:49:28;;;;;;;4.93;4.43;;;;;;;;;;5038057;28;20028;-64
2022/04/05 05:51:53;;;;;;;8.57;6.87;;;;;;;;;;5041387;28;20236;-65
2022/04/05 05:54:19;;;;;;;8.87;7.67;;;;;;;;;;5052283;28;20469;-65
2022/04/05 05:56:44;;;;;;;9.17;8.07;;;;;;;;;;5040974;28;20040;-65
2022/04/05 05:59:09;;;;;;;6.20;5.17;;;;;;;;;;5034926;28;20087;-65
2022/04/05 06:01:35;;;;;;;6.67;5.93;;;;;;;;;;5030376;28;20071;-65
2022/04/05 06:04:00;;;;;;;7.40;6.40;;;;;;;;;;5030677;28;20470;-65
2022/04/05 06:06:28;;;;;;;7.40;6.43;;;;;;;;;;5042848;28;20025;-66
2022/04/05 06:08:53;;;;;;;5.00;4.37;;;;;;;;;;5047500;28;20449;-65
2022/04/05 06:11:19;;;;;;;7.97;5.63;;;;;;;;;;5050829;28;20029;-65
2022/04/05 06:13:44;;;;;;;5.03;4.53;;;;;;;;;;5048813;28;20045;-65
2022/04/05 06:16:09;;;;;;;4.90;4.47;;;;;;;;;;5032439;28;20037;-65
2022/04/05 06:18:34;;;;;;;6.03;5.43;;;;;;;;;;5044154;28;20029;-63
2022/04/05 06:21:00;;;;;;;6.37;5.60;;;;;;;;;;5050791;28;20108;-64
2022/04/05 06:23:25;;;;;;;7.10;6.40;;;;;;;;;;5051281;28;20052;-64
2022/04/05 06:25:53;;;;;;;7.43;6.73;;;;;;;;;;5051122;28;20481;-64
2022/04/05 06:28:19;;;;;;;2.60;1.97;;;;;;;;;;5039397;28;20021;-65
2022/04/05 06:30:44;;;;;;;7.57;6.77;;;;;;;;;;5045900;28;20087;-65
2022/04/05 06:33:13;;;;;;;3.63;3.27;;;;;;;;;;5039262;28;20086;-66
2022/04/05 06:35:43;;;;;;;4.67;4.03;;;;;;;;;;5042938;28;20030;-64
2022/04/05 06:38:08;;;;;;;6.47;5.87;;;;;;;;;;5046184;28;20032;-65
2022/04/05 06:40:34;;;;;;;4.73;4.33;;;;;;;;;;5051016;28;20735;-65
2022/04/05 06:42:59;;;;;;;5.13;4.47;;;;;;;;;;5042054;28;20479;-65
2022/04/05 06:45:24;;;;;;;7.17;5.70;;;;;;;;;;5043067;28;20029;-64
2022/04/05 06:47:50;;;;;;;7.27;6.47;;;;;;;;;;5036239;28;20026;-65
2022/04/05 06:50:20;;;;;;;7.63;6.43;;;;;;;;;;5031180;28;20033;-63
2022/04/05 06:52:45;;;;;;;3.47;3.10;;;;;;;;;;5037716;28;20037;-64
2022/04/05 06:55:11;;;;;;;6.83;6.13;;;;;;;;;;5039499;28;20032;-65
2022/04/05 06:57:36;;;;;;;3.73;2.83;;;;;;;;;;5033938;28;20117;-64
2022/04/05 07:00:03;;;;;;;4.93;4.17;;;;;;;;;;5039853;28;20520;-64
2022/04/05 07:02:29;;;;;;;3.77;3.33;;;;;;;;;;5035430;28;20067;-64
2022/04/05 07:04:54;;;;;;;7.20;6.40;;;;;;;;;;5035638;28;20034;-65
2022/04/05 07:07:19;;;;;;;6.73;6.03;;;;;;;;;;5050229;28;20025;-64
2022/04/05 07:09:44;;;;;;;8.27;6.40;;;;;;;;;;5036430;28;20034;-65
2022/04/05 07:12:09;;;;;;;5.30;4.80;;;;;;;;;;5037317;28;20482;-64
2022/04/05 07:14:35;;;;;;;7.93;7.03;;;;;;;;;;5054235;28;20035;-63
2022/04/05 07:17:00;;;;;;;6.50;5.80;;;;;;;;;;5041200;28;20542;-64
2022/04/05 07:19:25;;;;;;;8.47;7.30;;;;;;;;;;5049789;28;20025;-65
2022/04/05 07:21:50;;;;;;;6.60;5.83;;;;;;;;;;5039333;28;20039;-65
2022/04/05 07:24:16;;;;;;;6.63;6.00;;;;;;;;;;5040251;28;20049;-64
2022/04/05 07:26:41;;;;;;;6.53;5.97;;;;;;;;;;5032113;28;20044;-65
2022/04/05 07:29:06;;;;;;;5.43;4.93;;;;;;;;;;5050359;28;20028;-65
2022/04/05 07:31:31;;;;;;;5.93;5.30;;;;;;;;;;5052428;28;20070;-65
2022/04/05 07:33:57;;;;;;;5.10;4.53;;;;;;;;;;5054820;28;20032;-64
2022/04/05 07:36:22;;;;;;;1.77;1.60;;;;;;;;;;5042961;28;20024;-64
2022/04/05 07:38:47;;;;;;;6.93;5.80;;;;;;;;;;5038965;28;20040;-64
2022/04/05 07:41:13;;;;;;;5.80;5.10;;;;;;;;;;5045867;28;20029;-64
2022/04/05 07:43:38;;;;;;;6.20;5.60;;;;;;;;;;5038737;28;20067;-65
2022/04/05 07:46:04;;;;;;;4.38;3.97;;;;;;;;;;5043135;28;20057;-63
2022/04/05 07:48:30;;;;;;;1.60;1.50;;;;;;;;;;5038057;28;20017;-63
2022/04/05 07:50:56;;;;;;;4.72;4.25;;;;;;;;;;5037508;28;20025;-64
2022/04/05 07:53:21;;;;;;;4.15;3.47;;;;;;;;;;5039110;28;20017;-65
2022/04/05 07:55:46;;;;;;;4.38;3.97;;;;;;;;;;5040915;28;20252;-65
2022/04/05 07:58:12;;;;;;;3.58;3.28;;;;;;;;;;5037527;28;20046;-65
2022/04/05 08:00:37;;;;;;;4.90;4.07;;;;;;;;;;5048578;28;20090;-65
2022/04/05 08:03:03;;;;;;;4.53;4.13;;;;;;;;;;5035926;28;20096;-66
2022/04/05 08:05:28;;;;;;;4.00;3.60;;;;;;;;;;5039979;28;20025;-66
2022/04/05 08:07:54;;;;;;;3.65;3.13;;;;;;;;;;5046808;28;20108;-66
2022/04/05 08:10:19;;;;;;;4.00;3.38;;;;;;;;;;5044575;28;20465;-65
2022/04/05 08:12:46;;;;;;;5.30;4.80;;;;;;;;;;5048222;28;20037;-65
2022/04/05 08:15:12;;;;;;;2.95;2.70;;;;;;;;;;5046594;28;20040;-64
2022/04/05 08:17:38;;;;;;;5.80;4.75;;;;;;;;;;5036085;28;20017;-60
2022/04/05 08:20:04;;;;;;;5.72;5.00;;;;;;;;;;5041673;28;20496;-60
2022/04/05 08:22:29;;;;;;;6.50;5.72;;;;;;;;;;5042533;28;20052;-59
2022/04/05 08:24:54;;;;;;;3.78;3.40;;;;;;;;;;5050643;28;20457;-60
2022/04/05 08:27:20;;;;;;;5.00;4.53;;;;;;;;;;5042793;28;20111;-60
2022/04/05 08:29:45;;;;;;;2.53;2.33;;;;;;;;;;5055079;28;20032;-60
2022/04/05 08:32:10;;;;;;;2.42;2.22;;;;;;;;;;5049978;28;20112;-60
2022/04/05 08:34:38;;;;;;;2.28;2.08;;;;;;;;;;5053952;28;20389;-60
2022/04/05 08:37:03;;;;;;;4.00;3.58;;;;;;;;;;5037177;28;20021;-60
2022/04/05 08:39:29;;;;;;;4.15;3.75;;;;;;;;;;5033847;28;20013;-59
2022/04/05 08:41:55;;;;;;;3.88;3.58;;;;;;;;;;5049885;28;20087;-59
2022/04/05 08:44:21;;;;;;;2.97;2.78;;;;;;;;;;5048206;28;20025;-60
2022/04/05 08:46:47;;;;;;;5.78;4.80;;;;;;;;;;5033773;28;20120;-60
2022/04/05 08:49:13;;;;;;;1.67;1.38;;;;;;;;;;5033244;28;20496;-59
2022/04/05 08:51:38;;;;;;;3.03;2.83;;;;;;;;;;5038246;28;20043;-59
2022/04/05 08:54:03;;;;;;;3.03;2.72;;;;;;;;;;5054282;28;20123;-59
2022/04/05 08:56:30;;;;;;;3.40;3.10;;;;;;;;;;5048996;28;20508;-59
2022/04/05 08:58:56;;;;;;;4.07;3.72;;;;;;;;;;5033808;28;20103;-60
2022/04/05 09:01:21;;;;;;;3.35;2.63;;;;;;;;;;5037061;28;20044;-60
2022/04/05 09:03:46;;;;;;;3.55;3.25;;;;;;;;;;5057120;28;20032;-59
2022/04/05 09:06:26;;;;;;;3.40;3.20;;;;;;;;;;5055399;28;20030;-59
2022/04/05 09:08:56;;;;;;;3.00;2.80;;;;;;;;;;5033132;28;20117;-60
2022/04/05 09:11:21;;;;;;;4.25;3.85;;;;;;;;;;5033311;28;20026;-61
2022/04/05 09:13:57;;;;;;;4.45;4.07;;;;;;;;;;5047811;28;20033;-60
2022/04/05 09:16:31;;;;;;;3.88;3.58;;;;;;;;;;5033710;28;20405;-60
2022/04/05 09:18:56;;;;;;;2.53;2.40;;;;;;;;;;5033077;28;20029;-60
2022/04/05 09:21:22;;;;;;;1.70;1.60;;;;;;;;;;5043408;28;20377;-61
2022/04/05 09:23:52;;;;;;;2.78;1.17;;;;;;;;;;5050624;28;20041;-59
2022/04/05 09:26:18;;;;;;;2.78;2.58;;;;;;;;;;5046884;28;20059;-60
2022/04/05 09:28:44;;;;;;;1.38;1.27;;;;;;;;;;5034737;28;20076;-59
2022/04/05 09:31:11;;;;;;;0.93;0.93;;;;;;;;;;5035869;28;20013;-59
2022/04/05 09:33:37;;;;;;;1.30;1.20;;;;;;;;;;5038105;28;20028;-59
2022/04/05 09:36:13;;;;;;;1.17;1.15;;;;;;;;;;5051590;28;20049;-59
2022/04/05 09:38:39;;;;;;;1.83;1.73;;;;;;;;;;5052359;28;20470;-59
2022/04/05 09:41:09;;;;;;;1.30;1.20;;;;;;;;;;5052842;28;20108;-59
2022/04/05 09:43:34;;;;;;;1.40;1.30;;;;;;;;;;5045192;28;20079;-60
2022/04/05 09:46:03;;;;;;;0.77;0.73;;;;;;;;;;5060132;28;20028;-59
2022/04/05 09:48:29;;;;;;;0.73;0.73;;;;;;;;;;5072535;28;20071;-60
2022/04/05 09:51:17;;;;;;;0.98;0.85;;;;;;;;;;5070787;28;20086;-60
2022/04/05 09:53:47;;;;;;;0.80;0.65;;;;;;;;;;5050988;28;20028;-60
2022/04/05 09:56:17;;;;;;;0.47;0.45;;;;;;;;;;5052264;28;20009;-60
2022/04/05 09:58:52;;;;;;;0.50;0.47;;;;;;;;;;5039591;28;20139;-58
2022/04/05 10:01:18;;;;;;;1.30;0.95;;;;;;;;;;5051497;28;20029;-59
2022/04/05 10:03:56;;;;;;;2.53;1.40;;;;;;;;;;5045790;28;20017;-59
2022/04/05 10:06:22;;;;;;;1.65;1.40;;;;;;;;;;5049448;28;20041;-59
2022/04/05 10:08:48;;;;;;;2.28;2.08;;;;;;;;;;5071646;28;20120;-59
2022/04/05 10:11:14;;;;;;;1.77;1.67;;;;;;;;;;5072206;28;20028;-60
2022/04/05 10:13:39;;;;;;;3.75;2.70;;;;;;;;;;5061119;28;20079;-59
2022/04/05 10:16:05;;;;;;;1.80;1.70;;;;;;;;;;5032825;28;20112;-59
2022/04/05 10:18:34;;;;;;;1.08;0.47;;;;;;;;;;5057104;28;20021;-60
2022/04/05 10:21:00;;;;;;;1.77;1.42;;;;;;;;;;5051449;28;20024;-59
2022/04/05 10:23:26;;;;;;;1.65;1.48;;;;;;;;;;5064935;28;20036;-60
2022/04/05 10:25:52;;;;;;;1.15;1.15;;;;;;;;;;5058682;28;20036;-60
2022/04/05 10:28:19;;;;;;;1.17;0.93;;;;;;;;;;5048310;28;20067;-60
2022/04/05 10:30:50;;;;;;;0.73;0.70;;;;;;;;;;5054285;28;20025;-59
2022/04/05 10:33:41;;;;;;;0.90;0.70;;;;;;;;;;5050598;28;20029;-60
2022/04/05 10:36:08;;;;;;;0.60;0.57;;;;;;;;;;5042988;28;20075;-60
2022/04/05 10:38:33;;;;;;;0.60;0.60;;;;;;;;;;5040439;28;20473;-60
2022/04/05 10:41:14;;;;;;;0.60;0.60;;;;;;;;;;5051716;28;20116;-59
2022/04/05 10:43:41;;;;;;;0.50;0.30;;;;;;;;;;5037408;28;20039;-59
2022/04/05 10:46:07;;;;;;;0.40;0.40;;;;;;;;;;5040516;28;20025;-60
2022/04/05 10:48:32;;;;;;;0.40;0.40;;;;;;;;;;5051493;28;20025;-60
2022/04/05 10:51:00;;;;;;;0.60;0.40;;;;;;;;;;5069551;28;20036;-60
2022/04/05 10:53:32;;;;;;;0.35;0.30;;;;;;;;;;5052578;28;20386;-58
2022/04/05 10:56:03;;;;;;;0.32;0.20;;;;;;;;;;5048189;28;20025;-60
2022/04/05 10:58:32;;;;;;;0.30;0.30;;;;;;;;;;5038811;28;20056;-59
2022/04/05 11:01:18;;;;;;;0.25;0.25;;;;;;;;;;5035205;28;20450;-60
2022/04/05 11:04:03;;;;;;;0.57;0.30;;;;;;;;;;5031613;28;20094;-59
2022/04/05 11:06:28;;;;;;;0.40;0.30;;;;;;;;;;5039969;28;20040;-60
2022/04/05 11:08:53;;;;;;;0.17;0.17;;;;;;;;;;5041416;28;20037;-59
2022/04/05 11:11:18;;;;;;;0.20;0.20;;;;;;;;;;5049354;28;20067;-59
2022/04/05 11:13:46;;;;;;;0.35;0.20;;;;;;;;;;5048047;28;20033;-59
2022/04/05 11:16:12;;;;;;;0.30;0.10;;;;;;;;;;5042162;28;20541;-60
2022/04/05 11:18:38;;;;;;;0.20;0.20;;;;;;;;;;5031995;28;20150;-60
2022/04/05 11:21:06;;;;;;;0.10;0.10;;;;;;;;;;5045497;28;20102;-60
2022/04/05 11:23:40;;;;;;;0.10;0.10;;;;;;;;;;5046092;28;20027;-60
2022/04/05 11:26:24;;;;;;;0.30;0.20;;;;;;;;;;5052270;28;20033;-60
2022/04/05 11:28:50;;;;;;;0.40;0.30;;;;;;;;;;5045104;28;20017;-60
2022/04/05 11:31:28;;;;;;;0.20;0.20;;;;;;;;;;5046474;28;20017;-60
2022/04/05 11:33:54;;;;;;;2.20;0.20;;;;;;;;;;5038588;28;20018;-60
2022/04/05 11:36:22;;;;;;;0.20;0.20;;;;;;;;;;5041287;28;20013;-60
2022/04/05 11:38:47;;;;;;;0.30;0.30;;;;;;;;;;5037829;28;20037;-60
2022/04/05 11:41:18;;;;;;;0.60;0.40;;;;;;;;;;5036612;28;20489;-60
2022/04/05 11:43:44;;;;;;;0.60;0.60;;;;;;;;;;5049005;28;20497;-59
2022/04/05 11:46:10;;;;;;;0.70;0.63;;;;;;;;;;5031037;28;20060;-60
2022/04/05 11:48:38;;;;;;;0.90;0.90;;;;;;;;;;5042230;28;20037;-60
2022/04/05 11:51:07;;;;;;;0.65;0.40;;;;;;;;;;5045452;28;20029;-59
2022/04/05 11:53:32;;;;;;;0.70;0.70;;;;;;;;;;5038582;28;20175;-59
2022/04/05 11:56:03;;;;;;;0.70;0.60;;;;;;;;;;5035576;28;20112;-59
2022/04/05 11:58:30;;;;;;;0.65;0.60;;;;;;;;;;5042989;28;20052;-59
2022/04/05 12:00:56;;;;;;;1.13;0.60;;;;;;;;;;5050220;28;20540;-60
2022/04/05 12:03:21;;;;;;;1.10;1.00;;;;;;;;;;5052166;28;20037;-60
2022/04/05 12:05:46;;;;;;;0.93;0.50;;;;;;;;;;5049992;28;20021;-59
2022/04/05 12:08:12;;;;;;;0.63;0.63;;;;;;;;;;5036124;28;20044;-60
2022/04/05 12:10:38;;;;;;;0.90;0.70;;;;;;;;;;5049301;28;20116;-60
2022/04/05 12:13:03;;;;;;;0.90;0.80;;;;;;;;;;5050860;28;20151;-60
2022/04/05 12:15:28;;;;;;;0.85;0.60;;;;;;;;;;5039206;28;20064;-60
2022/04/05 12:18:12;;;;;;;0.90;0.60;;;;;;;;;;5034343;28;20048;-59
2022/04/05 12:20:37;;;;;;;0.70;0.70;;;;;;;;;;5052189;28;20029;-59
2022/04/05 12:23:03;;;;;;;0.90;0.70;;;;;;;;;;5053533;28;20032;-59
2022/04/05 12:25:28;;;;;;;0.60;0.60;;;;;;;;;;5052061;28;20516;-59
2022/04/05 12:27:53;;;;;;;0.93;0.93;;;;;;;;;;5046792;28;20032;-59
2022/04/05 12:30:26;;;;;;;0.70;0.70;;;;;;;;;;5045566;28;20036;-59
2022/04/05 12:32:52;;;;;;;0.98;0.95;;;;;;;;;;5051582;28;20025;-60
2022/04/05 12:35:19;;;;;;;1.60;1.50;;;;;;;;;;5052563;28;20135;-60
2022/04/05 12:37:44;;;;;;;1.10;1.00;;;;;;;;;;5053503;28;20029;-60
2022/04/05 12:40:23;;;;;;;1.50;1.40;;;;;;;;;;5047072;28;20021;-60
2022/04/05 12:42:48;;;;;;;0.75;0.63;;;;;;;;;;5053136;28;20021;-60
2022/04/05 12:45:13;;;;;;;1.15;1.15;;;;;;;;;;5053115;28;20382;-60
2022/04/05 12:47:43;;;;;;;1.00;1.00;;;;;;;;;;5053528;28;20585;-60
2022/04/05 12:50:09;;;;;;;1.27;1.27;;;;;;;;;;5052605;28;20024;-60
2022/04/05 12:52:34;;;;;;;0.88;0.88;;;;;;;;;;5052918;28;20020;-60
2022/04/05 12:54:59;;;;;;;1.75;1.27;;;;;;;;;;5053157;28;20036;-59
2022/04/05 12:57:34;;;;;;;1.50;1.40;;;;;;;;;;5046313;28;20021;-59
2022/04/05 12:59:59;;;;;;;;;;;;;;;;;;5052701;28;20055;-60
2022/04/05 13:02:25;;;;;;;2.78;1.73;;;;;;;;;;5048711;28;19920;-60
2022/04/05 13:06:19;;;;;;;1.17;1.02;;;;;;;;;;5052833;28;20111;-61
2022/04/05 13:07:37;;;;;;;1.67;1.58;;;;;;;;;;5051224;28;20485;-60
2022/04/05 13:10:08;;;;;;;1.17;1.10;;;;;;;;;;5053037;28;20021;-59
2022/04/05 13:12:37;;;;;;;2.00;1.90;;;;;;;;;;5052996;28;20029;-59
2022/04/05 13:15:10;;;;;;;2.13;2.03;;;;;;;;;;5048303;28;20039;-60
2022/04/05 13:17:35;;;;;;;2.10;2.00;;;;;;;;;;5048579;28;20033;-61
2022/04/05 13:20:05;;;;;;;2.42;2.33;;;;;;;;;;5034784;28;20036;-60
2022/04/05 13:22:30;;;;;;;2.05;1.88;;;;;;;;;;5050021;28;20035;-59
2022/04/05 13:24:56;;;;;;;2.25;2.15;;;;;;;;;;5043050;28;20025;-60
2022/04/05 13:27:21;;;;;;;1.65;1.55;;;;;;;;;;5045747;28;20389;-60
2022/04/05 13:29:47;;;;;;;1.40;1.30;;;;;;;;;;5052211;28;20017;-59
2022/04/05 13:32:16;;;;;;;0.85;0.85;;;;;;;;;;5050018;28;20020;-60
2022/04/05 13:34:44;;;;;;;1.02;0.98;;;;;;;;;;5050933;28;20052;-60
2022/04/05 13:37:12;;;;;;;1.02;1.02;;;;;;;;;;5048479;28;20048;-60
2022/04/05 13:39:37;;;;;;;2.40;1.20;;;;;;;;;;5052636;28;20063;-60
2022/04/05 13:42:04;;;;;;;1.27;1.20;;;;;;;;;;5043490;28;20061;-60
2022/04/05 13:44:29;;;;;;;1.38;1.27;;;;;;;;;;5037153;28;20061;-60
2022/04/05 13:46:55;;;;;;;1.13;1.02;;;;;;;;;;5052678;28;20405;-59
2022/04/05 13:49:20;;;;;;;1.33;1.23;;;;;;;;;;5048834;28;20021;-59
2022/04/05 13:51:46;;;;;;;1.30;1.20;;;;;;;;;;5050960;28;20029;-60
2022/04/05 13:54:11;;;;;;;1.33;1.23;;;;;;;;;;5048028;28;20029;-59
2022/04/05 13:56:40;;;;;;;1.05;1.05;;;;;;;;;;5044380;28;20029;-59
2022/04/05 13:59:06;;;;;;;1.60;1.50;;;;;;;;;;5041097;28;20048;-60
2022/04/05 14:01:31;;;;;;;1.55;1.50;;;;;;;;;;5051549;28;20025;-59
2022/04/05 14:03:57;;;;;;;1.38;1.30;;;;;;;;;;5049540;28;20017;-61
2022/04/05 14:06:22;;;;;;;0.95;0.95;;;;;;;;;;5044984;28;20366;-60
2022/04/05 14:08:48;;;;;;;1.45;1.35;;;;;;;;;;5043166;28;20024;-59
2022/04/05 14:11:13;;;;;;;2.20;1.92;;;;;;;;;;5051575;28;20025;-60
2022/04/05 14:13:39;;;;;;;2.00;1.90;;;;;;;;;;5050157;28;20087;-60
2022/04/05 14:16:05;;;;;;;1.65;1.55;;;;;;;;;;5045502;28;20017;-60
2022/04/05 14:18:30;;;;;;;2.03;1.73;;;;;;;;;;5048082;28;20025;-60
2022/04/05 14:20:55;;;;;;;1.98;1.88;;;;;;;;;;5050687;28;20106;-60
2022/04/05 14:23:21;;;;;;;2.55;2.35;;;;;;;;;;5051028;28;20670;-60
2022/04/05 14:25:46;;;;;;;2.85;2.60;;;;;;;;;;5051641;28;20033;-58
2022/04/05 14:28:11;;;;;;;2.70;2.50;;;;;;;;;;5037963;28;20033;-60
2022/04/05 14:30:37;;;;;;;2.28;2.15;;;;;;;;;;5049090;28;20032;-59
2022/04/05 14:33:02;;;;;;;3.10;2.80;;;;;;;;;;5050603;28;20028;-60